Time;durP1;ratioP1;P1;durP2;ratioP2;P2;SDS_P1;SDS_P2;PMS_P1;PMS_P2;Temp;Humidity;BMP_temperature;BMP_pressure;BME280_temperature;BME280_humidity;BME280_pressure;Samples;Min_cycle;Max_cycle;Signal;HPM_P1;HPM_P2
2022/11/06 00:01:06;;;;;;;2.72;1.80;;;21.20;55.30;;;;;;5032806;28;20037;-44
2022/11/06 00:03:32;;;;;;;2.28;1.73;;;21.10;55.10;;;;;;5031792;28;20212;-45
2022/11/06 00:08:42;;;;;;;2.92;1.70;;;21.10;55.20;;;;;;5034390;28;20028;-44
2022/11/06 00:11:16;;;;;;;2.30;1.48;;;21.10;55.10;;;;;;5033724;28;20037;-44
2022/11/06 00:13:42;;;;;;;2.38;1.73;;;21.10;55.10;;;;;;5034403;28;20025;-44
2022/11/06 00:16:10;;;;;;;2.67;1.60;;;21.10;55.10;;;;;;5033766;28;20465;-44
2022/11/06 00:18:36;;;;;;;1.85;1.55;;;21.10;55.10;;;;;;5033626;28;20486;-44
2022/11/06 00:21:10;;;;;;;2.80;1.63;;;21.10;55.20;;;;;;5030707;28;20029;-45
2022/11/06 00:23:36;;;;;;;2.50;1.80;;;21.10;55.10;;;;;;5033585;28;20033;-43
2022/11/06 00:26:10;;;;;;;4.72;2.00;;;21.10;55.00;;;;;;5033257;28;20025;-44
2022/11/06 00:28:35;;;;;;;3.00;1.75;;;21.10;55.00;;;;;;5033710;28;20103;-44
2022/11/06 00:31:03;;;;;;;2.28;1.55;;;21.10;55.00;;;;;;5032628;28;20056;-44
2022/11/06 00:33:28;;;;;;;2.95;1.80;;;21.10;55.10;;;;;;5044424;28;20049;-44
2022/11/06 00:35:54;;;;;;;3.25;2.00;;;21.10;55.00;;;;;;5053200;28;20036;-44
2022/11/06 00:38:20;;;;;;;2.40;1.65;;;21.10;55.00;;;;;;5053160;28;20021;-44
2022/11/06 00:40:45;;;;;;;2.78;1.67;;;21.10;55.10;;;;;;5040079;28;20029;-44
2022/11/06 00:43:11;;;;;;;3.22;1.80;;;21.10;55.00;;;;;;5062085;28;20033;-49
2022/11/06 00:45:36;;;;;;;2.28;1.60;;;21.10;55.00;;;;;;5053027;28;20025;-43
2022/11/06 00:48:02;;;;;;;3.10;1.92;;;21.00;54.90;;;;;;5053513;28;20097;-43
2022/11/06 00:50:28;;;;;;;2.45;1.55;;;21.00;54.80;;;;;;5052541;28;20025;-43
2022/11/06 00:52:54;;;;;;;3.10;1.75;;;21.10;54.90;;;;;;5053522;28;20044;-43
2022/11/06 00:55:20;;;;;;;2.47;1.80;;;21.00;54.90;;;;;;5050763;28;20359;-43
2022/11/06 00:57:45;;;;;;;4.20;1.95;;;21.00;54.90;;;;;;5060003;28;20025;-44
2022/11/06 01:00:12;;;;;;;4.85;2.10;;;21.00;54.80;;;;;;5055939;28;20055;-49
2022/11/06 01:02:38;;;;;;;2.17;1.85;;;21.00;54.80;;;;;;5053052;28;20466;-44
2022/11/06 01:05:04;;;;;;;2.83;1.90;;;21.00;54.80;;;;;;5052900;28;20109;-44
2022/11/06 01:07:29;;;;;;;4.10;2.25;;;21.00;55.00;;;;;;5052594;28;20050;-44
2022/11/06 01:09:56;;;;;;;5.95;2.75;;;21.00;54.80;;;;;;5040678;28;20044;-43
2022/11/06 01:12:21;;;;;;;2.67;1.77;;;21.00;54.80;;;;;;5048030;28;20094;-44
2022/11/06 01:14:47;;;;;;;3.78;1.80;;;21.00;54.80;;;;;;5051902;28;20052;-43
2022/11/06 01:17:13;;;;;;;3.15;1.90;;;21.00;54.70;;;;;;5049084;28;20108;-48
2022/11/06 01:19:41;;;;;;;1.98;1.60;;;21.00;54.70;;;;;;5052092;28;20075;-44
2022/11/06 01:22:06;;;;;;;3.75;2.28;;;20.90;54.20;;;;;;5052564;28;20071;-44
2022/11/06 01:24:33;;;;;;;3.20;1.85;;;21.00;54.80;;;;;;5051685;28;20037;-43
2022/11/06 01:26:59;;;;;;;3.22;2.22;;;21.00;54.70;;;;;;5053280;28;20064;-43
2022/11/06 01:29:25;;;;;;;2.63;1.65;;;21.00;54.70;;;;;;5051550;28;20060;-43
2022/11/06 01:31:50;;;;;;;2.03;1.70;;;21.00;54.70;;;;;;5052395;28;20484;-43
2022/11/06 01:34:16;;;;;;;2.80;1.85;;;21.00;54.60;;;;;;5050851;28;20115;-44
2022/11/06 01:36:42;;;;;;;3.03;1.90;;;21.00;54.60;;;;;;5052220;28;20378;-43
2022/11/06 01:39:11;;;;;;;2.47;1.75;;;20.90;54.70;;;;;;5051290;28;20125;-45
2022/11/06 01:41:46;;;;;;;2.47;1.85;;;21.00;54.60;;;;;;5051542;28;20035;-44
2022/11/06 01:44:42;;;;;;;2.08;1.60;;;20.90;54.60;;;;;;5052545;28;20104;-49
2022/11/06 01:47:28;;;;;;;2.70;1.52;;;20.90;54.60;;;;;;5048244;28;20087;-43
2022/11/06 01:50:07;;;;;;;2.38;1.70;;;20.90;54.60;;;;;;5051816;28;20025;-44
2022/11/06 01:52:33;;;;;;;2.50;1.70;;;20.90;54.50;;;;;;5051519;28;20033;-43
2022/11/06 01:55:10;;;;;;;2.10;1.60;;;20.90;54.60;;;;;;5051672;28;20021;-43
2022/11/06 01:57:36;;;;;;;2.83;1.70;;;20.90;54.50;;;;;;5052374;28;20108;-43
2022/11/06 02:00:03;;;;;;;2.53;1.77;;;20.90;54.50;;;;;;5051724;28;20099;-44
2022/11/06 02:02:29;;;;;;;2.45;1.88;;;20.90;54.50;;;;;;5051673;28;20033;-43
2022/11/06 02:04:54;;;;;;;2.97;1.83;;;20.90;54.50;;;;;;5051496;28;20366;-43
2022/11/06 02:07:20;;;;;;;2.30;1.55;;;20.90;54.50;;;;;;5051531;28;20025;-44
2022/11/06 02:09:46;;;;;;;2.28;1.70;;;20.90;54.40;;;;;;5046816;28;20028;-43
2022/11/06 02:12:32;;;;;;;2.42;1.70;;;20.90;54.40;;;;;;5049687;28;20028;-49
2022/11/06 02:15:13;;;;;;;2.88;2.08;;;20.90;54.50;;;;;;5051190;28;20029;-44
2022/11/06 02:18:11;;;;;;;3.10;1.48;;;20.90;54.40;;;;;;5050853;28;20020;-44
2022/11/06 02:20:55;;;;;;;4.72;1.70;;;20.90;54.40;;;;;;5041859;28;20013;-44
2022/11/06 02:23:36;;;;;;;4.78;2.28;;;20.90;54.30;;;;;;5051279;28;20047;-44
2022/11/06 02:26:17;;;;;;;2.95;1.92;;;20.90;54.40;;;;;;5044249;28;20081;-43
2022/11/06 02:29:08;;;;;;;2.28;1.83;;;20.90;55.00;;;;;;5042861;28;20416;-44
2022/11/06 02:31:36;;;;;;;2.80;1.67;;;20.90;54.40;;;;;;5049927;28;20029;-43
2022/11/06 02:34:10;;;;;;;2.17;1.90;;;20.90;54.30;;;;;;5057584;28;20032;-43
2022/11/06 02:36:40;;;;;;;2.80;1.25;;;20.90;54.30;;;;;;5051200;28;20151;-43
2022/11/06 02:39:11;;;;;;;2.38;1.77;;;20.90;54.20;;;;;;5033069;28;20344;-44
2022/11/06 02:41:42;;;;;;;1.90;1.55;;;20.90;54.20;;;;;;5051263;28;20029;-43
2022/11/06 02:44:14;;;;;;;2.45;1.75;;;20.90;55.00;;;;;;5051796;28;20013;-47
2022/11/06 02:46:42;;;;;;;;;;;20.90;54.20;;;;;;5051913;28;20029;-44
2022/11/06 02:49:13;;;;;;;2.72;1.55;;;20.90;54.90;;;;;;5051707;28;20025;-43
2022/11/06 02:51:46;;;;;;;1.65;1.20;;;20.80;54.20;;;;;;5056064;28;20035;-46
2022/11/06 02:54:13;;;;;;;2.17;1.42;;;20.90;54.20;;;;;;5051187;28;20408;-48
2022/11/06 02:56:43;;;;;;;2.72;1.80;;;20.90;54.20;;;;;;5051454;28;20025;-43
2022/11/06 02:59:19;;;;;;;2.35;1.75;;;20.90;54.20;;;;;;5051766;28;20462;-49
2022/11/06 03:01:47;;;;;;;2.28;1.75;;;20.90;54.20;;;;;;5051443;28;20501;-43
2022/11/06 03:04:22;;;;;;;2.00;1.33;;;20.90;54.20;;;;;;5050603;28;20021;-48
2022/11/06 03:06:55;;;;;;;2.25;1.38;;;20.90;54.20;;;;;;5051206;28;20455;-44
2022/11/06 03:09:27;;;;;;;1.45;1.30;;;20.80;54.10;;;;;;5048076;28;20021;-44
2022/11/06 03:12:00;;;;;;;2.28;1.65;;;20.90;54.10;;;;;;5045665;28;20044;-44
2022/11/06 03:14:40;;;;;;;2.50;1.45;;;20.90;54.10;;;;;;5043420;28;20035;-44
2022/11/06 03:17:27;;;;;;;2.22;1.70;;;20.80;54.00;;;;;;5051553;28;20052;-44
2022/11/06 03:20:02;;;;;;;2.38;1.60;;;20.90;54.10;;;;;;5050843;28;20104;-43
2022/11/06 03:22:56;;;;;;;2.10;1.40;;;20.80;54.00;;;;;;5042554;28;20476;-43
2022/11/06 03:25:32;;;;;;;1.60;1.10;;;20.80;54.00;;;;;;5021924;28;20040;-43
2022/11/06 03:28:02;;;;;;;1.52;1.38;;;20.80;54.00;;;;;;5051366;28;20100;-43
2022/11/06 03:30:28;;;;;;;2.15;1.50;;;20.80;53.90;;;;;;5050141;28;20482;-43
2022/11/06 03:33:14;;;;;;;2.08;1.35;;;20.80;53.90;;;;;;5050731;28;20132;-43
2022/11/06 03:35:43;;;;;;;2.42;1.42;;;20.80;54.00;;;;;;5050758;28;20036;-44
2022/11/06 03:38:32;;;;;;;1.90;1.33;;;20.80;54.00;;;;;;5051053;28;20462;-48
2022/11/06 03:41:03;;;;;;;1.98;1.55;;;20.80;53.90;;;;;;5049954;28;20031;-44
2022/11/06 03:43:34;;;;;;;2.75;2.15;;;20.80;53.80;;;;;;5051884;28;20709;-43
2022/11/06 03:46:03;;;;;;;2.73;1.33;;;20.80;53.80;;;;;;5047617;28;20375;-44
2022/11/06 03:48:36;;;;;;;3.28;1.67;;;20.80;53.90;;;;;;5054261;28;20025;-43
2022/11/06 03:51:11;;;;;;;2.72;1.60;;;20.80;53.90;;;;;;5060528;28;20025;-45
2022/11/06 03:53:48;;;;;;;2.70;1.50;;;20.80;53.90;;;;;;5060887;28;20083;-44
2022/11/06 03:56:26;;;;;;;1.92;1.40;;;20.80;53.90;;;;;;5058224;28;20017;-45
2022/11/06 03:58:54;;;;;;;1.73;1.50;;;20.80;53.90;;;;;;5062205;28;20757;-44
2022/11/06 04:01:27;;;;;;;1.88;1.60;;;20.80;54.50;;;;;;5063034;28;20025;-44
2022/11/06 04:04:17;;;;;;;2.03;1.35;;;20.80;53.90;;;;;;5059177;28;20033;-46
2022/11/06 04:06:49;;;;;;;1.80;1.48;;;20.80;53.80;;;;;;5061516;28;20421;-44
2022/11/06 04:14:52;;;;;;;2.35;1.45;;;20.80;53.80;;;;;;5064624;28;20070;-44
2022/11/06 04:17:21;;;;;;;2.70;1.95;;;20.80;53.80;;;;;;5053422;28;20040;-44
2022/11/06 04:19:54;;;;;;;1.65;1.45;;;20.80;53.80;;;;;;5053906;28;20028;-43
2022/11/06 04:22:40;;;;;;;1.63;1.40;;;20.80;53.80;;;;;;5049317;28;20067;-44
2022/11/06 04:28:20;;;;;;;2.00;1.40;;;20.80;53.70;;;;;;5054504;28;20067;-44
2022/11/06 04:30:51;;;;;;;3.35;1.90;;;20.80;53.70;;;;;;5052745;28;20104;-44
2022/11/06 04:33:27;;;;;;;3.08;1.50;;;20.80;53.70;;;;;;5052425;28;20115;-44
2022/11/06 04:36:15;;;;;;;2.60;1.60;;;20.80;53.70;;;;;;5053594;28;20029;-44
2022/11/06 04:38:52;;;;;;;1.83;1.30;;;20.80;53.70;;;;;;5053797;28;20021;-45
2022/11/06 04:41:33;;;;;;;1.40;1.30;;;20.80;53.70;;;;;;5052736;28;20029;-44
2022/11/06 04:44:21;;;;;;;2.92;1.88;;;20.80;53.70;;;;;;5053164;28;20446;-43
2022/11/06 04:46:59;;;;;;;2.55;1.80;;;20.80;53.60;;;;;;5035868;28;20115;-46
2022/11/06 04:49:28;;;;;;;3.03;1.83;;;20.80;53.60;;;;;;5052612;28;20029;-43
2022/11/06 04:51:55;;;;;;;1.23;1.10;;;20.80;53.60;;;;;;5046066;28;20112;-43
2022/11/06 04:54:21;;;;;;;1.85;1.45;;;20.70;53.60;;;;;;5042825;28;20100;-44
2022/11/06 04:56:47;;;;;;;2.83;1.48;;;20.70;53.60;;;;;;5049501;28;20407;-44
2022/11/06 04:59:15;;;;;;;2.13;1.45;;;20.80;53.60;;;;;;5061530;28;20033;-49
2022/11/06 05:01:40;;;;;;;1.90;1.70;;;20.80;53.60;;;;;;5053549;28;20034;-43
2022/11/06 05:04:06;;;;;;;2.78;1.58;;;20.70;53.60;;;;;;5053387;28;20032;-43
2022/11/06 05:06:31;;;;;;;1.65;1.17;;;20.70;53.60;;;;;;5052188;28;20020;-43
2022/11/06 05:08:57;;;;;;;2.30;1.55;;;20.70;53.50;;;;;;5052056;28;20032;-43
2022/11/06 05:11:23;;;;;;;2.28;1.85;;;20.70;54.10;;;;;;5051758;28;20036;-44
2022/11/06 05:13:49;;;;;;;1.80;1.33;;;20.70;54.10;;;;;;5053202;28;20021;-44
2022/11/06 05:16:15;;;;;;;1.65;1.27;;;20.80;53.60;;;;;;5060044;28;20030;-44
2022/11/06 05:18:40;;;;;;;1.42;1.10;;;20.80;53.60;;;;;;5053143;28;20028;-45
2022/11/06 05:23:50;;;;;;;1.92;1.50;;;20.70;53.50;;;;;;5052779;28;20528;-44
2022/11/06 05:26:16;;;;;;;3.22;1.80;;;20.70;53.40;;;;;;5051546;28;20025;-43
2022/11/06 05:28:42;;;;;;;1.98;1.58;;;20.80;53.40;;;;;;5034871;28;20029;-45
2022/11/06 05:31:07;;;;;;;1.77;1.23;;;20.70;53.40;;;;;;5051336;28;20033;-48
2022/11/06 05:33:33;;;;;;;1.73;1.48;;;20.80;53.50;;;;;;5058978;28;20057;-44
2022/11/06 05:36:03;;;;;;;2.30;1.20;;;20.70;53.30;;;;;;5051649;28;20029;-43
2022/11/06 05:38:29;;;;;;;2.67;1.55;;;20.80;53.40;;;;;;5051687;28;20151;-43
2022/11/06 05:40:54;;;;;;;1.80;1.30;;;20.70;53.30;;;;;;5052363;28;20477;-44
2022/11/06 05:43:20;;;;;;;2.15;1.30;;;20.70;53.30;;;;;;5051989;28;20116;-44
2022/11/06 05:45:45;;;;;;;1.60;1.27;;;20.70;53.30;;;;;;5042220;28;20028;-44
2022/11/06 05:48:11;;;;;;;2.22;1.60;;;20.70;53.40;;;;;;5043719;28;20108;-49
2022/11/06 05:50:37;;;;;;;1.45;1.33;;;20.70;53.30;;;;;;5050227;28;20032;-44
2022/11/06 05:53:02;;;;;;;1.17;1.08;;;20.70;53.40;;;;;;5052361;28;20025;-44
2022/11/06 05:55:28;;;;;;;2.53;1.38;;;20.70;53.20;;;;;;5050925;28;20147;-44
2022/11/06 05:57:53;;;;;;;1.73;1.35;;;20.70;53.20;;;;;;5052500;28;20362;-44
2022/11/06 06:00:19;;;;;;;1.60;1.50;;;20.70;53.30;;;;;;5048672;28;20095;-44
2022/11/06 06:02:45;;;;;;;2.45;1.63;;;20.70;53.80;;;;;;5043610;28;20048;-43
2022/11/06 06:05:11;;;;;;;2.25;1.52;;;20.70;53.20;;;;;;5051304;28;20470;-49
2022/11/06 06:07:36;;;;;;;4.13;1.48;;;20.70;53.30;;;;;;5052026;28;20025;-43
2022/11/06 06:10:03;;;;;;;1.77;1.60;;;20.70;53.20;;;;;;5051657;28;20485;-43
2022/11/06 06:12:28;;;;;;;1.48;1.38;;;20.70;53.20;;;;;;5051427;28;20068;-44
2022/11/06 06:14:54;;;;;;;2.40;1.50;;;20.70;53.20;;;;;;5051339;28;20147;-43
2022/11/06 06:17:20;;;;;;;3.45;1.48;;;20.70;53.20;;;;;;5050948;28;20029;-44
2022/11/06 06:19:46;;;;;;;3.47;1.70;;;20.70;53.10;;;;;;5051563;28;20021;-44
2022/11/06 06:22:12;;;;;;;2.13;1.25;;;20.70;53.20;;;;;;5051850;28;20112;-49
2022/11/06 06:24:37;;;;;;;3.38;1.52;;;20.70;53.20;;;;;;5053336;28;20584;-43
2022/11/06 06:27:03;;;;;;;2.33;1.70;;;20.70;53.20;;;;;;5057465;28;20020;-44
2022/11/06 06:29:29;;;;;;;1.75;1.60;;;20.70;53.20;;;;;;5054272;28;20031;-43
2022/11/06 06:31:55;;;;;;;2.17;1.50;;;20.70;53.10;;;;;;5055374;28;20036;-44
2022/11/06 06:34:20;;;;;;;2.70;1.70;;;20.70;53.20;;;;;;5056115;28;20045;-43
2022/11/06 06:36:50;;;;;;;2.35;1.85;;;20.70;53.20;;;;;;5057277;28;20100;-43
2022/11/06 06:39:16;;;;;;;1.38;1.13;;;20.70;53.20;;;;;;5068990;28;20035;-44
2022/11/06 06:41:41;;;;;;;1.73;1.60;;;20.70;53.20;;;;;;5070529;28;20028;-44
2022/11/06 06:44:07;;;;;;;1.95;1.55;;;20.70;53.10;;;;;;5070221;28;20012;-44
2022/11/06 06:46:33;;;;;;;1.85;1.38;;;20.70;53.10;;;;;;5068697;28;20025;-43
2022/11/06 06:48:58;;;;;;;2.65;1.58;;;20.70;53.10;;;;;;5070217;28;20094;-44
2022/11/06 06:51:24;;;;;;;2.95;1.63;;;20.70;53.10;;;;;;5068658;28;20028;-43
2022/11/06 06:53:50;;;;;;;2.10;1.33;;;20.70;53.10;;;;;;5069952;28;20060;-44
2022/11/06 06:56:15;;;;;;;1.95;1.30;;;20.70;53.10;;;;;;5068867;28;20028;-43
2022/11/06 06:58:41;;;;;;;1.50;1.27;;;20.70;53.20;;;;;;5070223;28;20016;-43
2022/11/06 07:01:09;;;;;;;2.90;1.27;;;20.70;53.10;;;;;;5069850;28;20112;-45
2022/11/06 07:03:36;;;;;;;2.53;1.45;;;20.70;53.00;;;;;;5069989;28;20465;-43
2022/11/06 07:06:02;;;;;;;1.98;1.48;;;20.70;53.20;;;;;;5067676;28;20104;-43
2022/11/06 07:08:28;;;;;;;1.42;1.08;;;20.70;53.30;;;;;;5068388;28;20119;-44
2022/11/06 07:11:01;;;;;;;2.20;1.60;;;20.70;53.20;;;;;;5069621;28;20074;-43
2022/11/06 07:13:27;;;;;;;1.92;1.38;;;20.70;53.20;;;;;;5069512;28;20025;-45
2022/11/06 07:15:53;;;;;;;2.40;1.60;;;20.70;53.20;;;;;;5069507;28;20025;-43
2022/11/06 07:18:18;;;;;;;1.75;1.50;;;20.70;53.10;;;;;;5070996;28;20024;-44
2022/11/06 07:20:44;;;;;;;1.73;1.38;;;20.70;53.10;;;;;;5074048;28;20031;-43
2022/11/06 07:23:09;;;;;;;1.75;1.25;;;20.70;53.10;;;;;;5072711;28;20099;-48
2022/11/06 07:25:35;;;;;;;1.98;1.35;;;20.70;53.10;;;;;;5073286;28;20024;-43
2022/11/06 07:28:02;;;;;;;1.60;1.50;;;20.70;53.10;;;;;;5062570;28;20046;-44
2022/11/06 07:30:28;;;;;;;5.25;1.20;;;20.70;53.10;;;;;;5072182;28;20520;-43
2022/11/06 07:32:54;;;;;;;1.77;1.27;;;20.70;53.10;;;;;;5073447;28;20040;-44
2022/11/06 07:35:19;;;;;;;1.77;1.20;;;20.70;53.30;;;;;;5071420;28;20373;-43
2022/11/06 07:37:45;;;;;;;2.00;1.58;;;20.70;53.10;;;;;;5072443;28;20039;-43
2022/11/06 07:40:10;;;;;;;3.17;1.90;;;20.70;53.10;;;;;;5072438;28;20142;-43
2022/11/06 07:42:36;;;;;;;1.67;1.30;;;20.70;53.00;;;;;;5073958;28;20025;-43
2022/11/06 07:45:02;;;;;;;1.60;1.50;;;20.70;52.90;;;;;;5073363;28;20020;-43
2022/11/06 07:47:30;;;;;;;1.42;1.33;;;20.60;52.90;;;;;;5072581;28;20469;-43
2022/11/06 07:49:56;;;;;;;2.95;1.33;;;20.60;52.80;;;;;;5073296;28;20021;-44
2022/11/06 07:52:22;;;;;;;1.80;1.23;;;20.70;53.00;;;;;;5072538;28;20016;-43
2022/11/06 07:54:47;;;;;;;2.72;1.50;;;20.60;52.80;;;;;;5073077;28;20027;-44
2022/11/06 07:57:13;;;;;;;2.53;1.20;;;20.60;52.80;;;;;;5059059;28;20031;-43
2022/11/06 07:59:39;;;;;;;1.80;1.52;;;20.70;52.90;;;;;;5072571;28;20016;-43
2022/11/06 08:02:05;;;;;;;1.48;1.20;;;20.70;52.90;;;;;;5073277;28;20115;-43
2022/11/06 08:04:31;;;;;;;1.42;1.33;;;20.60;52.80;;;;;;5072362;28;20219;-45
2022/11/06 08:06:57;;;;;;;1.70;1.50;;;20.60;52.80;;;;;;5068779;28;20461;-43
2022/11/06 08:09:24;;;;;;;1.33;1.23;;;20.70;52.90;;;;;;5071850;28;20023;-44
2022/11/06 08:11:49;;;;;;;1.70;1.33;;;20.70;52.90;;;;;;5072299;28;20036;-43
2022/11/06 08:14:15;;;;;;;1.90;1.30;;;20.60;52.80;;;;;;5072043;28;20479;-44
2022/11/06 08:16:41;;;;;;;1.85;1.63;;;20.70;52.90;;;;;;5073089;28;20051;-43
2022/11/06 08:19:06;;;;;;;1.80;1.42;;;20.70;53.10;;;;;;5060967;28;20016;-43
2022/11/06 08:21:33;;;;;;;2.08;1.50;;;20.70;53.40;;;;;;5072010;28;20361;-44
2022/11/06 08:23:58;;;;;;;2.75;1.70;;;20.70;53.80;;;;;;5072922;28;20031;-43
2022/11/06 08:26:24;;;;;;;3.63;2.00;;;20.70;54.20;;;;;;5071881;28;20017;-43
2022/11/06 08:28:50;;;;;;;3.42;1.45;;;20.70;54.50;;;;;;5071317;28;20412;-43
2022/11/06 08:31:16;;;;;;;3.00;1.42;;;20.70;54.50;;;;;;5069933;28;20028;-43
2022/11/06 08:33:41;;;;;;;1.90;1.45;;;20.70;54.80;;;;;;5072259;28;20039;-43
2022/11/06 08:36:08;;;;;;;3.33;1.70;;;20.80;55.00;;;;;;5071799;28;20021;-43
2022/11/06 08:38:35;;;;;;;3.92;1.40;;;20.70;55.00;;;;;;5072713;28;20021;-43
2022/11/06 08:41:09;;;;;;;3.80;1.60;;;20.80;55.00;;;;;;5072365;28;20033;-43
2022/11/06 08:43:35;;;;;;;2.97;1.60;;;20.80;55.00;;;;;;5070607;28;20028;-44
2022/11/06 08:46:01;;;;;;;4.15;1.45;;;20.80;55.20;;;;;;5071454;28;20095;-44
2022/11/06 08:48:26;;;;;;;5.78;1.60;;;20.80;55.30;;;;;;5072042;28;20120;-44
2022/11/06 08:50:52;;;;;;;6.43;2.10;;;20.80;55.40;;;;;;5071909;28;20028;-43
2022/11/06 08:53:17;;;;;;;3.90;1.70;;;20.80;55.30;;;;;;5071378;28;20066;-43
2022/11/06 08:55:43;;;;;;;3.22;1.42;;;20.80;55.40;;;;;;5071660;28;20020;-43
2022/11/06 08:58:09;;;;;;;7.43;2.22;;;20.80;55.60;;;;;;5071860;28;20016;-49
2022/11/06 09:00:35;;;;;;;5.90;1.50;;;20.80;55.60;;;;;;5071283;28;20659;-45
2022/11/06 09:03:03;;;;;;;4.22;1.70;;;20.80;55.80;;;;;;5072956;28;20149;-43
2022/11/06 09:05:30;;;;;;;7.93;1.95;;;20.80;55.60;;;;;;5056649;28;20024;-43
2022/11/06 09:07:56;;;;;;;2.78;1.67;;;20.80;55.50;;;;;;5072077;28;20037;-44
2022/11/06 09:10:22;;;;;;;3.75;1.60;;;20.90;55.50;;;;;;5070312;28;20020;-43
2022/11/06 09:12:48;;;;;;;8.57;1.42;;;20.90;55.70;;;;;;5071694;28;20025;-43
2022/11/06 09:15:14;;;;;;;7.90;1.83;;;20.90;55.90;;;;;;5068866;28;20543;-44
2022/11/06 09:17:43;;;;;;;3.47;1.33;;;20.90;55.80;;;;;;5070984;28;20040;-43
2022/11/06 09:20:10;;;;;;;8.43;2.75;;;20.90;56.10;;;;;;5070854;28;20028;-48
2022/11/06 09:22:35;;;;;;;5.63;1.48;;;20.90;56.30;;;;;;5071997;28;20065;-42
2022/11/06 09:25:01;;;;;;;7.78;2.00;;;20.90;56.50;;;;;;5072301;28;20021;-44
2022/11/06 09:27:26;;;;;;;5.93;1.80;;;20.90;56.50;;;;;;5076362;28;20044;-43
2022/11/06 09:29:52;;;;;;;5.53;2.75;;;20.90;56.30;;;;;;5069686;28;20317;-43
2022/11/06 09:32:18;;;;;;;11.32;1.77;;;20.80;55.40;;;;;;5071266;28;20032;-43
2022/11/06 09:34:43;;;;;;;8.43;2.55;;;20.90;55.60;;;;;;5074569;28;20512;-43
2022/11/06 09:37:09;;;;;;;7.10;1.70;;;20.90;56.00;;;;;;5078620;28;20024;-48
2022/11/06 09:39:39;;;;;;;4.15;1.95;;;20.80;56.10;;;;;;5071302;28;20028;-43
2022/11/06 09:42:20;;;;;;;6.43;1.92;;;20.80;56.00;;;;;;5072202;28;20473;-43
2022/11/06 09:45:13;;;;;;;9.95;1.75;;;20.80;56.00;;;;;;5072133;28;20021;-43
2022/11/06 09:47:42;;;;;;;7.15;2.00;;;20.80;55.90;;;;;;5059562;28;20017;-43
2022/11/06 09:50:16;;;;;;;5.32;1.85;;;20.70;55.80;;;;;;5072847;28;20051;-43
2022/11/06 09:52:49;;;;;;;5.22;2.00;;;20.80;55.80;;;;;;5072585;28;20117;-43
2022/11/06 09:55:21;;;;;;;5.90;1.80;;;20.80;55.70;;;;;;5071271;28;20017;-43
2022/11/06 09:57:49;;;;;;;;;;;20.70;55.70;;;;;;5068169;28;20025;-43
2022/11/06 10:00:16;;;;;;;4.30;1.58;;;20.70;55.70;;;;;;5070142;28;19915;-44
2022/11/06 10:02:51;;;;;;;3.83;1.45;;;20.70;55.50;;;;;;5072455;28;20028;-43
2022/11/06 10:05:16;;;;;;;5.63;1.50;;;20.70;55.60;;;;;;5070996;28;20016;-43
2022/11/06 10:07:43;;;;;;;5.60;1.70;;;20.70;55.60;;;;;;5072116;28;20024;-43
2022/11/06 10:10:18;;;;;;;5.70;2.35;;;20.70;55.60;;;;;;5071844;28;20020;-43
2022/11/06 10:13:08;;;;;;;3.90;1.60;;;20.70;55.50;;;;;;5072183;28;20032;-43
2022/11/06 10:15:42;;;;;;;7.75;2.95;;;20.70;55.40;;;;;;5070675;28;20369;-43
2022/11/06 10:18:14;;;;;;;36.15;3.78;;;20.70;55.50;;;;;;5071843;28;20461;-43
2022/11/06 10:20:45;;;;;;;;;;;20.70;55.40;;;;;;5072131;28;20024;-43
2022/11/06 10:23:48;;;;;;;3.80;1.95;;;20.70;55.30;;;;;;5071891;28;19931;-49
2022/11/06 10:26:18;;;;;;;3.00;1.42;;;20.70;55.40;;;;;;5071402;28;20028;-43
2022/11/06 10:29:08;;;;;;;2.70;1.50;;;20.70;55.20;;;;;;5065741;28;20024;-43
2022/11/06 10:32:12;;;;;;;5.43;1.45;;;20.70;55.20;;;;;;5070784;28;20423;-43
2022/11/06 10:34:44;;;;;;;2.35;1.40;;;20.70;55.20;;;;;;5071423;28;20029;-43
2022/11/06 10:37:26;;;;;;;2.88;1.90;;;20.70;55.10;;;;;;5072072;28;20055;-48
2022/11/06 10:39:52;;;;;;;4.95;1.48;;;20.70;55.10;;;;;;5072257;28;20050;-43
2022/11/06 10:42:21;;;;;;;3.30;1.75;;;20.70;55.10;;;;;;5075171;28;20107;-43
2022/11/06 10:44:56;;;;;;;3.05;1.60;;;20.70;55.10;;;;;;5071023;28;20029;-43
2022/11/06 10:47:26;;;;;;;3.88;1.75;;;20.70;55.10;;;;;;5070177;28;20052;-43
2022/11/06 10:49:54;;;;;;;3.60;1.90;;;20.70;55.10;;;;;;5066390;28;20051;-43
2022/11/06 10:53:04;;;;;;;5.13;2.42;;;20.60;55.10;;;;;;5070097;28;20038;-43
2022/11/06 10:55:33;;;;;;;4.60;1.77;;;20.60;54.90;;;;;;5053378;28;20444;-43
2022/11/06 10:58:15;;;;;;;3.42;1.45;;;20.60;55.00;;;;;;5084140;28;20458;-43
2022/11/06 11:00:41;;;;;;;;;;;20.60;55.00;;;;;;5075533;28;20090;-43
2022/11/06 11:03:20;;;;;;;2.17;1.60;;;20.60;55.00;;;;;;5075562;28;20345;-43
2022/11/06 11:05:46;;;;;;;1.85;1.33;;;20.60;55.00;;;;;;5075450;28;20103;-43
2022/11/06 11:08:29;;;;;;;3.25;1.52;;;20.70;55.10;;;;;;5075236;28;20398;-48
2022/11/06 11:11:13;;;;;;;2.35;1.42;;;20.60;55.00;;;;;;5075249;28;20024;-43
2022/11/06 11:13:44;;;;;;;2.20;1.63;;;20.60;55.00;;;;;;5079553;28;20066;-43
2022/11/06 11:16:24;;;;;;;3.85;1.42;;;20.70;55.10;;;;;;5080560;28;20244;-49
2022/11/06 11:18:51;;;;;;;3.05;1.67;;;20.60;54.90;;;;;;5075425;28;20024;-43
2022/11/06 11:21:29;;;;;;;2.50;1.48;;;20.70;55.60;;;;;;5071581;28;20032;-43
2022/11/06 11:24:04;;;;;;;3.78;1.77;;;20.60;54.90;;;;;;5066573;28;20461;-43
2022/11/06 11:26:32;;;;;;;2.03;1.48;;;20.60;54.90;;;;;;5076480;28;20272;-43
2022/11/06 11:29:10;;;;;;;1.73;1.38;;;20.60;54.90;;;;;;5082313;28;20378;-43
2022/11/06 11:31:36;;;;;;;4.05;1.58;;;20.60;54.90;;;;;;5082647;28;20024;-43
2022/11/06 11:34:04;;;;;;;2.60;1.50;;;20.60;54.90;;;;;;5074561;28;20081;-43
2022/11/06 11:37:04;;;;;;;4.40;1.67;;;20.60;54.90;;;;;;5071545;28;20029;-43
2022/11/06 11:39:35;;;;;;;2.13;1.30;;;20.60;54.80;;;;;;5072596;28;20031;-43
2022/11/06 11:42:29;;;;;;;2.05;1.20;;;20.60;54.80;;;;;;5075263;28;20024;-43
2022/11/06 11:45:24;;;;;;;2.38;1.60;;;20.60;54.80;;;;;;5073325;28;20033;-46
2022/11/06 11:47:50;;;;;;;3.35;1.70;;;20.60;54.80;;;;;;5050289;28;20040;-43
2022/11/06 11:50:29;;;;;;;1.63;1.30;;;20.60;54.70;;;;;;5067438;28;20021;-43
2022/11/06 11:53:17;;;;;;;2.67;1.45;;;20.60;54.80;;;;;;5074660;28;20382;-43
2022/11/06 11:55:46;;;;;;;2.75;1.48;;;20.60;54.80;;;;;;5074088;28;20021;-43
2022/11/06 11:58:19;;;;;;;3.28;1.40;;;20.60;54.70;;;;;;5074448;28;20044;-48
2022/11/06 12:00:56;;;;;;;1.88;1.17;;;20.60;54.70;;;;;;5074004;28;20085;-44
2022/11/06 12:03:26;;;;;;;1.45;1.20;;;20.60;54.70;;;;;;5072915;28;20376;-43
2022/11/06 12:05:52;;;;;;;3.10;1.33;;;20.60;54.70;;;;;;5074058;28;20032;-43
2022/11/06 12:08:24;;;;;;;2.25;1.35;;;20.60;54.60;;;;;;5073769;28;20479;-43
2022/11/06 12:10:50;;;;;;;2.38;1.30;;;20.60;54.70;;;;;;5074102;28;20108;-43
2022/11/06 12:13:19;;;;;;;1.65;1.33;;;20.60;54.60;;;;;;5073745;28;20119;-43
2022/11/06 12:16:03;;;;;;;2.55;1.33;;;20.60;54.70;;;;;;5073870;28;20104;-43
2022/11/06 12:18:33;;;;;;;1.67;1.20;;;20.60;54.60;;;;;;5073561;28;20024;-43
2022/11/06 12:21:24;;;;;;;2.15;1.73;;;20.60;54.60;;;;;;5070273;28;20020;-43
2022/11/06 12:23:54;;;;;;;1.83;1.25;;;20.60;54.70;;;;;;5074176;28;20464;-43
2022/11/06 12:26:27;;;;;;;2.03;1.30;;;20.60;54.60;;;;;;5073880;28;20400;-43
2022/11/06 12:28:57;;;;;;;1.75;1.15;;;20.60;54.60;;;;;;5082295;28;20024;-43
2022/11/06 12:31:38;;;;;;;1.30;1.17;;;20.60;54.60;;;;;;5072744;28;20025;-43
2022/11/06 12:34:17;;;;;;;2.00;1.35;;;20.60;54.60;;;;;;5073732;28;20070;-43
2022/11/06 12:37:00;;;;;;;1.52;1.20;;;20.60;54.60;;;;;;5076328;28;20063;-43
2022/11/06 12:39:31;;;;;;;3.60;1.52;;;20.60;54.60;;;;;;5073461;28;20025;-43
2022/11/06 12:42:00;;;;;;;1.40;1.00;;;20.60;54.60;;;;;;5073499;28;20021;-45
2022/11/06 12:44:26;;;;;;;1.88;1.25;;;20.60;54.60;;;;;;5072652;28;20071;-43
2022/11/06 12:47:11;;;;;;;4.05;1.27;;;20.60;54.60;;;;;;5073819;28;20048;-43
2022/11/06 12:50:04;;;;;;;1.40;1.20;;;20.60;54.60;;;;;;5071924;28;20039;-43
2022/11/06 12:52:55;;;;;;;2.25;1.52;;;20.60;54.60;;;;;;5074720;28;20041;-43
2022/11/06 12:55:33;;;;;;;1.38;1.20;;;20.60;54.60;;;;;;5072377;28;20095;-42
2022/11/06 12:58:17;;;;;;;1.65;1.40;;;20.60;54.60;;;;;;5070030;28;20021;-43
2022/11/06 13:01:02;;;;;;;1.15;0.95;;;20.60;54.60;;;;;;5060826;28;20458;-43
2022/11/06 13:03:42;;;;;;;1.98;1.30;;;20.60;54.60;;;;;;5072396;28;20491;-43
2022/11/06 13:06:27;;;;;;;1.70;1.25;;;20.60;54.60;;;;;;5073051;28;20066;-43
2022/11/06 13:09:24;;;;;;;2.35;1.48;;;20.60;54.60;;;;;;5082711;28;20048;-43
2022/11/06 13:12:10;;;;;;;1.20;1.10;;;20.60;54.50;;;;;;5073333;28;20028;-43
2022/11/06 13:14:59;;;;;;;2.10;1.20;;;20.60;54.60;;;;;;5072430;28;20024;-43
2022/11/06 13:17:39;;;;;;;1.80;1.10;;;20.60;54.50;;;;;;5071868;28;20025;-43
2022/11/06 13:20:28;;;;;;;1.80;1.15;;;20.60;54.50;;;;;;5067111;28;20768;-43
2022/11/06 13:23:20;;;;;;;1.80;1.35;;;20.60;54.60;;;;;;5072980;28;20369;-43